sensor_id;sensor_type;location;lat;lon;timestamp;pressure;altitude;pressure_sealevel;temperature;humidity
66668;BME280;57205;51.438;-2.006;2022-09-13T00:01:40;100405.19;;;18.59;75.36
66668;BME280;57205;51.438;-2.006;2022-09-13T00:04:05;100399.94;;;18.54;75.69
66668;BME280;57205;51.438;-2.006;2022-09-13T00:06:31;100409.84;;;18.49;75.82
66668;BME280;57205;51.438;-2.006;2022-09-13T00:08:56;100409.69;;;18.46;76.01
66668;BME280;57205;51.438;-2.006;2022-09-13T00:11:27;100401.06;;;18.44;75.88
66668;BME280;57205;51.438;-2.006;2022-09-13T00:13:54;100398.19;;;18.40;76.18
66668;BME280;57205;51.438;-2.006;2022-09-13T00:16:22;100400.41;;;18.38;76.61
66668;BME280;57205;51.438;-2.006;2022-09-13T00:18:49;100402.50;;;18.33;77.26
66668;BME280;57205;51.438;-2.006;2022-09-13T00:21:17;100398.03;;;18.28;77.30
66668;BME280;57205;51.438;-2.006;2022-09-13T00:23:44;100394.53;;;18.28;76.80
66668;BME280;57205;51.438;-2.006;2022-09-13T00:26:13;100386.41;;;18.28;76.59
66668;BME280;57205;51.438;-2.006;2022-09-13T00:28:39;100389.91;;;18.28;76.17
66668;BME280;57205;51.438;-2.006;2022-09-13T00:31:07;100391.19;;;18.31;76.26
66668;BME280;57205;51.438;-2.006;2022-09-13T00:33:33;100380.50;;;18.34;76.18
66668;BME280;57205;51.438;-2.006;2022-09-13T00:36:05;100372.84;;;18.36;76.75
66668;BME280;57205;51.438;-2.006;2022-09-13T00:38:30;100378.41;;;18.40;76.88
66668;BME280;57205;51.438;-2.006;2022-09-13T00:40:56;100381.31;;;18.43;77.74
66668;BME280;57205;51.438;-2.006;2022-09-13T00:43:44;100386.72;;;18.43;78.04
66668;BME280;57205;51.438;-2.006;2022-09-13T00:46:14;100385.63;;;18.44;78.33
66668;BME280;57205;51.438;-2.006;2022-09-13T00:48:43;100385.63;;;18.44;79.49
66668;BME280;57205;51.438;-2.006;2022-09-13T00:51:11;100381.31;;;18.43;79.61
66668;BME280;57205;51.438;-2.006;2022-09-13T00:53:41;100372.84;;;18.45;80.19
66668;BME280;57205;51.438;-2.006;2022-09-13T00:56:15;100372.06;;;18.44;81.22
66668;BME280;57205;51.438;-2.006;2022-09-13T00:58:50;100372.69;;;18.41;82.17
66668;BME280;57205;51.438;-2.006;2022-09-13T01:01:20;100376.84;;;18.39;82.59
66668;BME280;57205;51.438;-2.006;2022-09-13T01:03:48;100375.56;;;18.36;82.86
66668;BME280;57205;51.438;-2.006;2022-09-13T01:06:19;100377.59;;;18.39;84.01
66668;BME280;57205;51.438;-2.006;2022-09-13T01:08:48;100378.25;;;18.36;84.05
66668;BME280;57205;51.438;-2.006;2022-09-13T01:11:21;100373.50;;;18.33;84.90
66668;BME280;57205;51.438;-2.006;2022-09-13T01:13:50;100369.66;;;18.34;85.35
66668;BME280;57205;51.438;-2.006;2022-09-13T01:16:15;100371.56;;;18.34;85.70
66668;BME280;57205;51.438;-2.006;2022-09-13T01:18:41;100370.31;;;18.31;86.34
66668;BME280;57205;51.438;-2.006;2022-09-13T01:23:42;100388.00;;;18.29;87.33
66668;BME280;57205;51.438;-2.006;2022-09-13T01:32:28;100375.69;;;18.40;87.17
66668;BME280;57205;51.438;-2.006;2022-09-13T01:35:17;100376.34;;;18.45;87.04
66668;BME280;57205;51.438;-2.006;2022-09-13T01:38:26;100377.97;;;18.46;86.94
66668;BME280;57205;51.438;-2.006;2022-09-13T01:44:04;100372.38;;;18.52;86.69
66668;BME280;57205;51.438;-2.006;2022-09-13T01:49:21;100357.88;;;18.47;86.86
66668;BME280;57205;51.438;-2.006;2022-09-13T01:57:15;100356.91;;;18.43;87.09
66668;BME280;57205;51.438;-2.006;2022-09-13T01:59:48;100360.09;;;18.45;87.15
66668;BME280;57205;51.438;-2.006;2022-09-13T02:03:19;100358.53;;;18.44;87.36
66668;BME280;57205;51.438;-2.006;2022-09-13T02:05:31;100355.16;;;18.39;87.36
66668;BME280;57205;51.438;-2.006;2022-09-13T02:08:38;100360.75;;;18.42;86.74
66668;BME280;57205;51.438;-2.006;2022-09-13T02:11:13;100370.47;;;18.35;86.57
66668;BME280;57205;51.438;-2.006;2022-09-13T02:13:49;100357.38;;;18.28;86.40
66668;BME280;57205;51.438;-2.006;2022-09-13T02:16:27;100373.81;;;18.23;86.41
66668;BME280;57205;51.438;-2.006;2022-09-13T02:18:58;100368.09;;;18.16;86.16
66668;BME280;57205;51.438;-2.006;2022-09-13T02:21:29;100372.56;;;18.12;86.24
66668;BME280;57205;51.438;-2.006;2022-09-13T02:24:06;100375.44;;;18.07;86.24
66668;BME280;57205;51.438;-2.006;2022-09-13T02:26:33;100379.25;;;18.06;85.64
66668;BME280;57205;51.438;-2.006;2022-09-13T02:29:04;100371.28;;;18.01;85.47
66668;BME280;57205;51.438;-2.006;2022-09-13T02:31:41;100378.13;;;17.99;85.69
66668;BME280;57205;51.438;-2.006;2022-09-13T02:34:14;100370.97;;;17.94;85.69
66668;BME280;57205;51.438;-2.006;2022-09-13T02:36:41;100380.38;;;17.88;85.80
66668;BME280;57205;51.438;-2.006;2022-09-13T02:39:15;100381.00;;;17.85;85.71
66668;BME280;57205;51.438;-2.006;2022-09-13T02:41:43;100376.06;;;17.87;85.61
66668;BME280;57205;51.438;-2.006;2022-09-13T02:47:02;100386.41;;;17.85;85.29
66668;BME280;57205;51.438;-2.006;2022-09-13T02:54:57;100397.38;;;17.80;85.91
66668;BME280;57205;51.438;-2.006;2022-09-13T02:57:28;100399.00;;;17.81;86.09
66668;BME280;57205;51.438;-2.006;2022-09-13T02:59:55;100395.63;;;17.84;86.06
66668;BME280;57205;51.438;-2.006;2022-09-13T03:02:22;100403.75;;;17.84;85.80
66668;BME280;57205;51.438;-2.006;2022-09-13T03:04:50;100408.22;;;17.80;85.72
66668;BME280;57205;51.438;-2.006;2022-09-13T03:07:16;100412.19;;;17.74;85.98
66668;BME280;57205;51.438;-2.006;2022-09-13T03:09:47;100418.22;;;17.71;86.37
66668;BME280;57205;51.438;-2.006;2022-09-13T03:15:23;100423.81;;;17.66;85.68
66668;BME280;57205;51.438;-2.006;2022-09-13T03:21:09;100425.06;;;17.60;84.88
66668;BME280;57205;51.438;-2.006;2022-09-13T03:26:22;100431.72;;;17.54;84.57
66668;BME280;57205;51.438;-2.006;2022-09-13T03:31:53;100432.19;;;17.47;84.63
66668;BME280;57205;51.438;-2.006;2022-09-13T03:37:10;100438.81;;;17.41;82.71
66668;BME280;57205;51.438;-2.006;2022-09-13T03:39:52;100439.78;;;17.37;81.77
66668;BME280;57205;51.438;-2.006;2022-09-13T03:42:42;100442.56;;;17.23;81.02
66668;BME280;57205;51.438;-2.006;2022-09-13T03:45:11;100449.31;;;17.04;79.96
66668;BME280;57205;51.438;-2.006;2022-09-13T03:47:39;100471.56;;;17.01;79.93
66668;BME280;57205;51.438;-2.006;2022-09-13T03:50:07;100461.94;;;16.86;79.42
66668;BME280;57205;51.438;-2.006;2022-09-13T03:52:34;100466.69;;;16.81;79.56
66668;BME280;57205;51.438;-2.006;2022-09-13T03:55:00;100470.75;;;16.70;80.04
66668;BME280;57205;51.438;-2.006;2022-09-13T03:57:26;100469.41;;;16.58;80.38
66668;BME280;57205;51.438;-2.006;2022-09-13T03:59:53;100472.50;;;16.52;79.70
66668;BME280;57205;51.438;-2.006;2022-09-13T04:02:21;100464.34;;;16.43;78.64
66668;BME280;57205;51.438;-2.006;2022-09-13T04:04:47;100460.94;;;16.38;77.98
66668;BME280;57205;51.438;-2.006;2022-09-13T04:07:18;100460.91;;;16.29;77.09
66668;BME280;57205;51.438;-2.006;2022-09-13T04:09:45;100467.31;;;16.20;77.36
66668;BME280;57205;51.438;-2.006;2022-09-13T04:12:11;100473.13;;;16.13;77.33
66668;BME280;57205;51.438;-2.006;2022-09-13T04:14:38;100470.56;;;16.08;76.66
66668;BME280;57205;51.438;-2.006;2022-09-13T04:17:04;100469.84;;;16.03;75.38
66668;BME280;57205;51.438;-2.006;2022-09-13T04:19:30;100482.66;;;15.97;74.96
66668;BME280;57205;51.438;-2.006;2022-09-13T04:21:56;100473.56;;;15.93;74.12
66668;BME280;57205;51.438;-2.006;2022-09-13T04:24:28;100472.56;;;15.89;74.32
66668;BME280;57205;51.438;-2.006;2022-09-13T04:26:54;100471.78;;;15.89;72.87
66668;BME280;57205;51.438;-2.006;2022-09-13T04:29:21;100469.19;;;15.84;72.38
66668;BME280;57205;51.438;-2.006;2022-09-13T04:31:48;100468.69;;;15.82;71.20
66668;BME280;57205;51.438;-2.006;2022-09-13T04:34:14;100484.06;;;15.81;71.24
66668;BME280;57205;51.438;-2.006;2022-09-13T04:36:41;100482.50;;;15.80;70.79
66668;BME280;57205;51.438;-2.006;2022-09-13T04:39:07;100482.28;;;15.77;70.60
66668;BME280;57205;51.438;-2.006;2022-09-13T04:41:32;100483.69;;;15.74;70.73
66668;BME280;57205;51.438;-2.006;2022-09-13T04:43:59;100477.78;;;15.72;71.41
66668;BME280;57205;51.438;-2.006;2022-09-13T04:46:24;100482.91;;;15.74;71.44
66668;BME280;57205;51.438;-2.006;2022-09-13T04:48:50;100480.28;;;15.69;71.89
66668;BME280;57205;51.438;-2.006;2022-09-13T04:51:17;100478.78;;;15.62;71.91
66668;BME280;57205;51.438;-2.006;2022-09-13T04:53:43;100476.72;;;15.59;72.31
66668;BME280;57205;51.438;-2.006;2022-09-13T04:56:09;100471.63;;;15.58;72.56
66668;BME280;57205;51.438;-2.006;2022-09-13T04:58:35;100471.63;;;15.58;72.71
66668;BME280;57205;51.438;-2.006;2022-09-13T05:01:05;100463.53;;;15.58;72.89
66668;BME280;57205;51.438;-2.006;2022-09-13T05:03:32;100464.13;;;15.55;72.81
66668;BME280;57205;51.438;-2.006;2022-09-13T05:06:05;100465.53;;;15.52;73.06
66668;BME280;57205;51.438;-2.006;2022-09-13T05:08:32;100465.84;;;15.51;72.97
66668;BME280;57205;51.438;-2.006;2022-09-13T05:10:58;100465.03;;;15.50;73.23
66668;BME280;57205;51.438;-2.006;2022-09-13T05:13:24;100455.53;;;15.53;72.88
66668;BME280;57205;51.438;-2.006;2022-09-13T05:15:54;100447.53;;;15.48;73.19
66668;BME280;57205;51.438;-2.006;2022-09-13T05:18:21;100459.75;;;15.45;73.24
66668;BME280;57205;51.438;-2.006;2022-09-13T05:20:46;100456.25;;;15.45;73.13
66668;BME280;57205;51.438;-2.006;2022-09-13T05:23:12;100449.25;;;15.44;73.35
66668;BME280;57205;51.438;-2.006;2022-09-13T05:25:38;100457.94;;;15.41;73.58
66668;BME280;57205;51.438;-2.006;2022-09-13T05:28:04;100455.00;;;15.37;73.44
66668;BME280;57205;51.438;-2.006;2022-09-13T05:30:29;100467.69;;;15.37;73.36
66668;BME280;57205;51.438;-2.006;2022-09-13T05:32:55;100460.19;;;15.34;73.47
66668;BME280;57205;51.438;-2.006;2022-09-13T05:35:21;100456.13;;;15.36;73.49
66668;BME280;57205;51.438;-2.006;2022-09-13T05:37:48;100459.59;;;15.37;73.40
66668;BME280;57205;51.438;-2.006;2022-09-13T05:40:13;100453.19;;;15.33;73.62
66668;BME280;57205;51.438;-2.006;2022-09-13T05:42:39;100457.19;;;15.35;73.34
66668;BME280;57205;51.438;-2.006;2022-09-13T05:45:05;100455.63;;;15.34;73.53
66668;BME280;57205;51.438;-2.006;2022-09-13T05:47:30;100460.69;;;15.36;73.44
66668;BME280;57205;51.438;-2.006;2022-09-13T05:49:56;100460.41;;;15.37;73.56
66668;BME280;57205;51.438;-2.006;2022-09-13T05:52:21;100450.41;;;15.38;73.56
66668;BME280;57205;51.438;-2.006;2022-09-13T05:54:47;100448.41;;;15.30;73.86
66668;BME280;57205;51.438;-2.006;2022-09-13T05:57:12;100442.72;;;15.31;73.82
66668;BME280;57205;51.438;-2.006;2022-09-13T05:59:37;100445.41;;;15.31;73.83
66668;BME280;57205;51.438;-2.006;2022-09-13T06:02:03;100441.63;;;15.32;74.16
66668;BME280;57205;51.438;-2.006;2022-09-13T06:04:29;100445.59;;;15.35;73.92
66668;BME280;57205;51.438;-2.006;2022-09-13T06:06:54;100437.03;;;15.33;73.74
66668;BME280;57205;51.438;-2.006;2022-09-13T06:09:20;100433.84;;;15.31;73.92
66668;BME280;57205;51.438;-2.006;2022-09-13T06:11:45;100442.72;;;15.31;73.93
66668;BME280;57205;51.438;-2.006;2022-09-13T06:14:11;100439.50;;;15.29;74.05
66668;BME280;57205;51.438;-2.006;2022-09-13T06:16:36;100438.25;;;15.27;73.74
66668;BME280;57205;51.438;-2.006;2022-09-13T06:19:03;100439.81;;;15.28;73.75
66668;BME280;57205;51.438;-2.006;2022-09-13T06:21:28;100450.91;;;15.26;74.09
66668;BME280;57205;51.438;-2.006;2022-09-13T06:23:54;100443.94;;;15.25;73.57
66668;BME280;57205;51.438;-2.006;2022-09-13T06:26:24;100452.03;;;15.25;74.12
66668;BME280;57205;51.438;-2.006;2022-09-13T06:28:53;100455.50;;;15.26;73.80
66668;BME280;57205;51.438;-2.006;2022-09-13T06:31:21;100455.78;;;15.24;73.88
66668;BME280;57205;51.438;-2.006;2022-09-13T06:33:46;100449.53;;;15.29;73.74
66668;BME280;57205;51.438;-2.006;2022-09-13T06:36:15;100446.81;;;15.29;73.53
66668;BME280;57205;51.438;-2.006;2022-09-13T06:38:42;100449.03;;;15.27;73.02
66668;BME280;57205;51.438;-2.006;2022-09-13T06:41:11;100445.81;;;15.25;73.59
66668;BME280;57205;51.438;-2.006;2022-09-13T06:43:38;100442.00;;;15.26;73.39
66668;BME280;57205;51.438;-2.006;2022-09-13T06:46:16;100440.44;;;15.25;73.16
66668;BME280;57205;51.438;-2.006;2022-09-13T06:48:43;100436.63;;;15.26;73.13
66668;BME280;57205;51.438;-2.006;2022-09-13T06:51:11;100441.00;;;15.22;72.88
66668;BME280;57205;51.438;-2.006;2022-09-13T06:53:37;100436.44;;;15.22;73.50
66668;BME280;57205;51.438;-2.006;2022-09-13T06:56:06;100441.00;;;15.22;73.06
66668;BME280;57205;51.438;-2.006;2022-09-13T06:58:33;100441.81;;;15.22;72.65
66668;BME280;57205;51.438;-2.006;2022-09-13T07:03:38;100445.13;;;15.19;73.16
66668;BME280;57205;51.438;-2.006;2022-09-13T07:06:24;100442.13;;;15.21;72.92
66668;BME280;57205;51.438;-2.006;2022-09-13T07:08:52;100433.44;;;15.24;73.09
66668;BME280;57205;51.438;-2.006;2022-09-13T07:11:20;100436.81;;;15.29;72.68
66668;BME280;57205;51.438;-2.006;2022-09-13T07:13:50;100430.84;;;15.32;72.31
66668;BME280;57205;51.438;-2.006;2022-09-13T07:16:17;100435.44;;;15.32;72.66
66668;BME280;57205;51.438;-2.006;2022-09-13T07:18:43;100426.53;;;15.31;72.73
66668;BME280;57205;51.438;-2.006;2022-09-13T07:21:10;100429.53;;;15.30;72.51
66668;BME280;57205;51.438;-2.006;2022-09-13T07:23:37;100414.66;;;15.32;72.34
66668;BME280;57205;51.438;-2.006;2022-09-13T07:26:04;100421.06;;;15.36;72.56
66668;BME280;57205;51.438;-2.006;2022-09-13T07:28:36;100421.44;;;15.30;72.25
66668;BME280;57205;51.438;-2.006;2022-09-13T07:31:08;100412.28;;;15.31;72.24
66668;BME280;57205;51.438;-2.006;2022-09-13T07:33:34;100411.16;;;15.32;72.41
66668;BME280;57205;51.438;-2.006;2022-09-13T07:35:59;100407.66;;;15.31;72.28
66668;BME280;57205;51.438;-2.006;2022-09-13T07:38:27;100415.69;;;15.36;72.12
66668;BME280;57205;51.438;-2.006;2022-09-13T07:40:56;100418.84;;;15.38;72.17
66668;BME280;57205;51.438;-2.006;2022-09-13T07:43:24;100418.28;;;15.41;72.18
66668;BME280;57205;51.438;-2.006;2022-09-13T07:48:23;100407.59;;;15.50;72.11
66668;BME280;57205;51.438;-2.006;2022-09-13T07:51:03;100422.88;;;15.54;71.68
66668;BME280;57205;51.438;-2.006;2022-09-13T07:53:30;100424.06;;;15.62;71.94
66668;BME280;57205;51.438;-2.006;2022-09-13T07:56:16;100417.88;;;15.61;71.58
66668;BME280;57205;51.438;-2.006;2022-09-13T07:58:43;100411.47;;;15.71;71.40
66668;BME280;57205;51.438;-2.006;2022-09-13T08:01:16;100412.84;;;15.82;71.26
66668;BME280;57205;51.438;-2.006;2022-09-13T08:03:42;100401.22;;;15.95;71.01
66668;BME280;57205;51.438;-2.006;2022-09-13T08:06:09;100403.47;;;16.02;70.36
66668;BME280;57205;51.438;-2.006;2022-09-13T08:08:35;100396.19;;;16.02;70.64
66668;BME280;57205;51.438;-2.006;2022-09-13T08:11:03;100412.38;;;16.02;70.51
66668;BME280;57205;51.438;-2.006;2022-09-13T08:13:29;100415.16;;;16.11;70.46
66668;BME280;57205;51.438;-2.006;2022-09-13T08:16:00;100423.94;;;16.16;70.41
66668;BME280;57205;51.438;-2.006;2022-09-13T08:18:27;100427.09;;;16.18;70.80
66668;BME280;57205;51.438;-2.006;2022-09-13T08:20:58;100420.63;;;16.19;70.58
66668;BME280;57205;51.438;-2.006;2022-09-13T08:23:24;100418.53;;;16.16;70.67
66668;BME280;57205;51.438;-2.006;2022-09-13T08:25:50;100426.16;;;16.14;71.13
66668;BME280;57205;51.438;-2.006;2022-09-13T08:28:17;100423.44;;;16.14;71.42
66668;BME280;57205;51.438;-2.006;2022-09-13T08:30:45;100427.84;;;16.10;71.44
66668;BME280;57205;51.438;-2.006;2022-09-13T08:33:11;100424.53;;;16.13;71.29
66668;BME280;57205;51.438;-2.006;2022-09-13T08:35:37;100432.13;;;16.11;71.35
66668;BME280;57205;51.438;-2.006;2022-09-13T08:38:03;100444.63;;;16.07;71.33
66668;BME280;57205;51.438;-2.006;2022-09-13T08:40:31;100434.47;;;16.04;71.75
66668;BME280;57205;51.438;-2.006;2022-09-13T08:45:36;100421.47;;;16.06;71.63
66668;BME280;57205;51.438;-2.006;2022-09-13T08:48:11;100430.19;;;16.03;71.86
66668;BME280;57205;51.438;-2.006;2022-09-13T08:50:39;100421.69;;;15.96;71.43
66668;BME280;57205;51.438;-2.006;2022-09-13T09:03:46;100433.94;;;16.16;71.17
66668;BME280;57205;51.438;-2.006;2022-09-13T09:06:14;100441.91;;;16.21;70.94
66668;BME280;57205;51.438;-2.006;2022-09-13T09:08:58;100437.81;;;16.23;71.36
66668;BME280;57205;51.438;-2.006;2022-09-13T09:15:44;100432.06;;;16.38;70.62
66668;BME280;57205;51.438;-2.006;2022-09-13T09:17:50;100444.31;;;16.44;70.61
66668;BME280;57205;51.438;-2.006;2022-09-13T09:20:30;100436.34;;;16.39;70.92
66668;BME280;57205;51.438;-2.006;2022-09-13T09:23:14;100438.22;;;16.39;71.03
66668;BME280;57205;51.438;-2.006;2022-09-13T09:25:41;100449.03;;;16.39;70.94
66668;BME280;57205;51.438;-2.006;2022-09-13T09:28:17;100446.63;;;16.37;70.53
66668;BME280;57205;51.438;-2.006;2022-09-13T09:31:03;100453.53;;;16.43;70.61
66668;BME280;57205;51.438;-2.006;2022-09-13T09:34:04;100453.44;;;16.48;70.60
66668;BME280;57205;51.438;-2.006;2022-09-13T09:36:43;100462.03;;;16.50;70.50
66668;BME280;57205;51.438;-2.006;2022-09-13T09:39:12;100463.16;;;16.49;70.57
66668;BME280;57205;51.438;-2.006;2022-09-13T09:41:38;100454.59;;;16.56;70.30
66668;BME280;57205;51.438;-2.006;2022-09-13T09:46:36;100463.00;;;16.54;69.55
66668;BME280;57205;51.438;-2.006;2022-09-13T09:49:47;100464.00;;;16.58;70.06
66668;BME280;57205;51.438;-2.006;2022-09-13T09:52:37;100467.91;;;16.75;69.89
66668;BME280;57205;51.438;-2.006;2022-09-13T09:55:26;100470.47;;;16.80;69.25
66668;BME280;57205;51.438;-2.006;2022-09-13T10:00:26;100465.06;;;16.80;68.34
66668;BME280;57205;51.438;-2.006;2022-09-13T10:02:56;100467.03;;;16.88;68.58
66668;BME280;57205;51.438;-2.006;2022-09-13T10:05:22;100458.63;;;16.89;68.64
66668;BME280;57205;51.438;-2.006;2022-09-13T10:07:58;100456.41;;;16.91;68.92
66668;BME280;57205;51.438;-2.006;2022-09-13T10:10:33;100464.19;;;16.93;68.83
66668;BME280;57205;51.438;-2.006;2022-09-13T10:13:01;100462.78;;;16.95;69.95
66668;BME280;57205;51.438;-2.006;2022-09-13T10:15:29;100457.91;;;17.06;68.86
66668;BME280;57205;51.438;-2.006;2022-09-13T10:18:17;100461.91;;;17.08;69.09
66668;BME280;57205;51.438;-2.006;2022-09-13T10:20:59;100459.44;;;17.20;68.59
66668;BME280;57205;51.438;-2.006;2022-09-13T10:23:25;100458.94;;;17.18;68.42
66668;BME280;57205;51.438;-2.006;2022-09-13T10:25:57;100460.88;;;17.26;68.24
66668;BME280;57205;51.438;-2.006;2022-09-13T10:28:25;100454.22;;;17.32;68.37
66668;BME280;57205;51.438;-2.006;2022-09-13T10:31:12;100452.50;;;17.36;67.97
66668;BME280;57205;51.438;-2.006;2022-09-13T10:33:42;100454.38;;;17.36;67.26
66668;BME280;57205;51.438;-2.006;2022-09-13T10:36:17;100457.09;;;17.36;66.84
66668;BME280;57205;51.438;-2.006;2022-09-13T10:39:12;100459.91;;;17.22;67.14
66668;BME280;57205;51.438;-2.006;2022-09-13T10:41:59;100460.56;;;17.28;66.91
66668;BME280;57205;51.438;-2.006;2022-09-13T10:47:10;100456.00;;;17.37;66.86
66668;BME280;57205;51.438;-2.006;2022-09-13T10:49:41;100453.91;;;17.34;66.16
66668;BME280;57205;51.438;-2.006;2022-09-13T10:52:30;100449.97;;;17.40;66.84
66668;BME280;57205;51.438;-2.006;2022-09-13T10:57:51;100456.81;;;17.46;65.12
66668;BME280;57205;51.438;-2.006;2022-09-13T11:00:20;100459.03;;;17.44;65.99
66668;BME280;57205;51.438;-2.006;2022-09-13T11:03:08;100454.00;;;17.51;66.38
66668;BME280;57205;51.438;-2.006;2022-09-13T11:13:41;100453.69;;;17.52;65.70
66668;BME280;57205;51.438;-2.006;2022-09-13T11:16:56;100457.34;;;17.48;64.96
66668;BME280;57205;51.438;-2.006;2022-09-13T11:19:55;100456.81;;;17.46;65.75
66668;BME280;57205;51.438;-2.006;2022-09-13T11:41:53;100458.47;;;17.16;69.17
66668;BME280;57205;51.438;-2.006;2022-09-13T11:52:56;100460.50;;;17.11;70.11
66668;BME280;57205;51.438;-2.006;2022-09-13T11:55:44;100460.84;;;17.18;70.39
66668;BME280;57205;51.438;-2.006;2022-09-13T11:58:15;100460.22;;;17.21;69.32
66668;BME280;57205;51.438;-2.006;2022-09-13T12:00:59;100460.22;;;17.21;70.34
66668;BME280;57205;51.438;-2.006;2022-09-13T12:03:41;100459.78;;;17.27;69.67
66668;BME280;57205;51.438;-2.006;2022-09-13T12:06:18;100462.16;;;17.29;70.51
66668;BME280;57205;51.438;-2.006;2022-09-13T12:08:53;100455.03;;;17.33;69.70
66668;BME280;57205;51.438;-2.006;2022-09-13T12:11:24;100452.97;;;17.38;70.61
66668;BME280;57205;51.438;-2.006;2022-09-13T12:13:56;100452.19;;;17.46;70.56
66668;BME280;57205;51.438;-2.006;2022-09-13T12:18:58;100454.34;;;17.58;70.52
66668;BME280;57205;51.438;-2.006;2022-09-13T12:21:31;100451.66;;;17.67;70.28
66668;BME280;57205;51.438;-2.006;2022-09-13T12:26:32;100449.25;;;17.65;68.20
66668;BME280;57205;51.438;-2.006;2022-09-13T12:31:48;100449.09;;;17.62;69.98
66668;BME280;57205;51.438;-2.006;2022-09-13T12:34:23;100445.91;;;17.60;68.87
66668;BME280;57205;51.438;-2.006;2022-09-13T12:42:53;100445.91;;;17.60;70.20
66668;BME280;57205;51.438;-2.006;2022-09-13T12:48:15;100430.88;;;17.45;68.78
66668;BME280;57205;51.438;-2.006;2022-09-13T12:51:14;100430.03;;;17.36;69.47
66668;BME280;57205;51.438;-2.006;2022-09-13T12:56:56;100434.47;;;17.23;69.34
66668;BME280;57205;51.438;-2.006;2022-09-13T13:00:10;100428.88;;;17.20;69.36
66668;BME280;57205;51.438;-2.006;2022-09-13T13:03:03;100424.44;;;17.24;70.08
66668;BME280;57205;51.438;-2.006;2022-09-13T13:05:47;100415.97;;;17.17;70.76
66668;BME280;57205;51.438;-2.006;2022-09-13T13:11:07;100417.91;;;17.25;71.17
66668;BME280;57205;51.438;-2.006;2022-09-13T13:13:43;100411.19;;;17.14;71.46
66668;BME280;57205;51.438;-2.006;2022-09-13T13:21:41;100403.56;;;17.16;72.73
66668;BME280;57205;51.438;-2.006;2022-09-13T13:29:30;100405.06;;;17.30;72.99
66668;BME280;57205;51.438;-2.006;2022-09-13T13:36:59;100400.63;;;17.34;73.54
66668;BME280;57205;51.438;-2.006;2022-09-13T13:41:58;100405.53;;;17.24;73.35
66668;BME280;57205;51.438;-2.006;2022-09-13T13:46:52;100393.56;;;17.16;73.25
66668;BME280;57205;51.438;-2.006;2022-09-13T13:57:25;100394.22;;;17.22;74.08
66668;BME280;57205;51.438;-2.006;2022-09-13T13:59:54;100387.53;;;17.19;74.09
66668;BME280;57205;51.438;-2.006;2022-09-13T14:02:25;100398.34;;;17.19;74.41
66668;BME280;57205;51.438;-2.006;2022-09-13T14:10:28;100398.63;;;17.09;74.53
66668;BME280;57205;51.438;-2.006;2022-09-13T14:13:40;100389.88;;;17.12;75.70
66668;BME280;57205;51.438;-2.006;2022-09-13T14:21:03;100383.19;;;17.10;75.00
66668;BME280;57205;51.438;-2.006;2022-09-13T14:23:30;100386.53;;;17.15;75.00
66668;BME280;57205;51.438;-2.006;2022-09-13T14:25:59;100381.47;;;17.14;75.99
66668;BME280;57205;51.438;-2.006;2022-09-13T14:28:25;100385.88;;;17.10;76.03
66668;BME280;57205;51.438;-2.006;2022-09-13T14:30:57;100386.38;;;17.12;77.10
66668;BME280;57205;51.438;-2.006;2022-09-13T14:33:33;100378.59;;;17.10;75.96
66668;BME280;57205;51.438;-2.006;2022-09-13T14:38:32;100385.06;;;17.01;75.05
66668;BME280;57205;51.438;-2.006;2022-09-13T14:41:20;100375.06;;;17.01;75.57
66668;BME280;57205;51.438;-2.006;2022-09-13T14:43:47;100372.34;;;17.01;75.61
66668;BME280;57205;51.438;-2.006;2022-09-13T14:46:22;100364.72;;;17.03;75.23
66668;BME280;57205;51.438;-2.006;2022-09-13T14:51:31;100361.22;;;17.03;75.64
66668;BME280;57205;51.438;-2.006;2022-09-13T14:54:10;100367.75;;;17.02;75.41
66668;BME280;57205;51.438;-2.006;2022-09-13T14:56:42;100359.63;;;17.02;76.20
66668;BME280;57205;51.438;-2.006;2022-09-13T14:59:22;100366.00;;;17.06;76.42
66668;BME280;57205;51.438;-2.006;2022-09-13T15:01:50;100363.16;;;17.11;76.36
66668;BME280;57205;51.438;-2.006;2022-09-13T15:04:17;100363.16;;;17.11;76.95
66668;BME280;57205;51.438;-2.006;2022-09-13T15:07:05;100359.34;;;17.12;75.46
66668;BME280;57205;51.438;-2.006;2022-09-13T15:09:31;100354.88;;;17.07;73.71
66668;BME280;57205;51.438;-2.006;2022-09-13T15:11:59;100355.19;;;17.06;74.19
66668;BME280;57205;51.438;-2.006;2022-09-13T15:14:35;100353.28;;;17.06;74.36
66668;BME280;57205;51.438;-2.006;2022-09-13T15:17:09;100351.38;;;17.07;75.26
66668;BME280;57205;51.438;-2.006;2022-09-13T15:19:43;100347.56;;;17.08;75.17
66668;BME280;57205;51.438;-2.006;2022-09-13T15:22:13;100345.66;;;17.08;74.69
66668;BME280;57205;51.438;-2.006;2022-09-13T15:24:52;100348.84;;;17.10;74.95
66668;BME280;57205;51.438;-2.006;2022-09-13T15:29:58;100343.13;;;17.12;74.76
66668;BME280;57205;51.438;-2.006;2022-09-13T15:32:44;100336.75;;;17.08;74.56
66668;BME280;57205;51.438;-2.006;2022-09-13T15:35:30;100338.00;;;17.02;74.60
66668;BME280;57205;51.438;-2.006;2022-09-13T15:38:27;100345.00;;;17.03;75.24
66668;BME280;57205;51.438;-2.006;2022-09-13T15:41:01;100339.59;;;17.03;75.58
66668;BME280;57205;51.438;-2.006;2022-09-13T15:43:28;100338.97;;;17.06;75.74
66668;BME280;57205;51.438;-2.006;2022-09-13T15:45:55;100334.03;;;17.08;75.26
66668;BME280;57205;51.438;-2.006;2022-09-13T15:48:33;100329.13;;;17.10;75.53
66668;BME280;57205;51.438;-2.006;2022-09-13T15:53:35;100326.56;;;17.13;76.35
66668;BME280;57205;51.438;-2.006;2022-09-13T15:56:02;100323.59;;;17.15;77.33
66668;BME280;57205;51.438;-2.006;2022-09-13T15:58:28;100327.53;;;17.17;77.14
66668;BME280;57205;51.438;-2.006;2022-09-13T16:00:54;100319.28;;;17.14;76.36
66668;BME280;57205;51.438;-2.006;2022-09-13T16:03:19;100319.28;;;17.14;76.62
66668;BME280;57205;51.438;-2.006;2022-09-13T16:05:45;100315.75;;;17.13;76.23
66668;BME280;57205;51.438;-2.006;2022-09-13T16:08:10;100314.19;;;17.12;76.71